createdAt,value
2019-04-06T00:04:15.814Z,16.73
2019-04-06T00:09:19.740Z,15.88
2019-04-06T00:14:23.626Z,16.93
2019-04-06T00:19:27.533Z,17.40
2019-04-06T00:24:31.414Z,17.07
2019-04-06T00:29:35.357Z,18.42
2019-04-06T00:34:39.436Z,17.25
2019-04-06T00:39:43.406Z,17.60
2019-04-06T00:44:47.295Z,18.02
2019-04-06T00:49:51.171Z,19.45
2019-04-06T00:54:55.073Z,18.90
2019-04-06T00:59:58.908Z,19.07
2019-04-06T01:05:02.803Z,20.20
2019-04-06T01:10:06.917Z,18.30
2019-04-06T01:15:11.021Z,18.92
2019-04-06T01:20:15.038Z,19.10
2019-04-06T01:25:19.944Z,18.95
2019-04-06T01:30:23.852Z,18.52
2019-04-06T01:35:27.765Z,18.50
2019-04-06T01:40:31.617Z,18.70
2019-04-06T01:45:35.526Z,19.73
2019-04-06T01:50:39.443Z,18.07
2019-04-06T01:55:43.344Z,18.87
2019-04-06T02:00:55.043Z,18.05
2019-04-06T02:05:58.967Z,20.35
2019-04-06T02:11:02.858Z,19.42
2019-04-06T02:16:06.790Z,19.85
2019-04-06T02:21:10.701Z,19.67
2019-04-06T02:26:14.627Z,19.70
2019-04-06T02:31:22.919Z,19.73
2019-04-06T02:36:34.248Z,20.72
2019-04-06T02:41:48.729Z,20.00
2019-04-06T02:46:52.634Z,20.55
2019-04-06T02:51:56.552Z,20.85
2019-04-06T02:57:00.398Z,20.77
2019-04-06T03:02:04.304Z,21.25
2019-04-06T03:07:08.215Z,21.42
2019-04-06T03:12:13.168Z,20.12
2019-04-06T03:17:17.094Z,20.17
2019-04-06T03:22:20.940Z,20.62
2019-04-06T03:27:25.973Z,20.68
2019-04-06T03:32:30.327Z,19.48
2019-04-06T03:37:34.400Z,21.45
2019-04-06T03:42:38.301Z,22.87
2019-04-06T03:47:42.146Z,21.60
2019-04-06T03:52:46.059Z,23.07
2019-04-06T03:57:49.860Z,26.40
2019-04-06T04:02:53.724Z,28.07
2019-04-06T04:07:57.783Z,26.35
2019-04-06T04:13:01.709Z,22.40
2019-04-06T04:18:05.864Z,24.92
2019-04-06T04:23:10.043Z,22.77
2019-04-06T04:28:13.920Z,23.62
2019-04-06T04:33:17.803Z,23.18
2019-04-06T04:38:21.675Z,21.80
2019-04-06T04:43:25.690Z,21.73
2019-04-06T04:48:29.617Z,21.52
2019-04-06T04:53:33.498Z,22.70
2019-04-06T04:58:37.374Z,21.93
2019-04-06T05:03:41.241Z,23.02
2019-04-06T05:08:45.163Z,22.52
2019-04-06T05:13:49.032Z,22.60
2019-04-06T05:18:52.922Z,23.30
2019-04-06T05:23:56.819Z,21.37
2019-04-06T05:29:00.686Z,22.13
2019-04-06T05:34:04.695Z,23.15
2019-04-06T05:39:08.586Z,22.07
2019-04-06T05:44:12.387Z,24.60
2019-04-06T05:49:16.358Z,47.13
2019-04-06T05:54:20.230Z,27.50
2019-04-06T05:59:24.104Z,21.62
2019-04-06T06:04:28.114Z,21.70
2019-04-06T06:09:32.182Z,21.17
2019-04-06T06:14:36.410Z,20.95
2019-04-06T06:19:40.432Z,21.12
2019-04-06T06:24:44.313Z,21.10
2019-04-06T06:29:48.205Z,20.17
2019-04-06T06:34:52.071Z,22.73
2019-04-06T06:39:55.994Z,21.25
2019-04-06T06:45:00.054Z,21.07
2019-04-06T06:50:06.244Z,21.12
2019-04-06T06:55:10.303Z,19.57
2019-04-06T07:00:14.516Z,19.85
2019-04-06T07:05:19.795Z,20.02
2019-04-06T07:10:23.729Z,20.85
2019-04-06T07:15:27.590Z,19.45
2019-04-06T07:20:31.578Z,21.27
2019-04-06T07:25:35.480Z,20.75
2019-04-06T07:30:39.418Z,20.05
2019-04-06T07:35:43.520Z,19.98
2019-04-06T07:40:47.780Z,19.30
2019-04-06T07:45:51.863Z,19.45
2019-04-06T07:50:56.120Z,21.05
2019-04-06T07:56:00.038Z,19.57
2019-04-06T08:01:04.971Z,20.30
2019-04-06T08:06:08.951Z,23.92
2019-04-06T08:11:12.993Z,19.42
2019-04-06T08:16:16.881Z,20.35
2019-04-06T08:21:20.919Z,18.07
2019-04-06T08:26:25.156Z,18.77
2019-04-06T08:31:29.205Z,19.90
2019-04-06T08:36:33.418Z,19.25
2019-04-06T08:41:37.184Z,19.57
2019-04-06T08:46:41.116Z,19.45
2019-04-06T08:51:45.363Z,20.62
2019-04-06T08:56:49.563Z,19.75
2019-04-06T09:01:53.511Z,20.50
2019-04-06T09:06:57.457Z,21.05
2019-04-06T09:12:01.412Z,20.82
2019-04-06T09:17:05.649Z,21.48
2019-04-06T09:22:09.564Z,20.52
2019-04-06T09:27:13.509Z,19.77
2019-04-06T09:32:17.625Z,20.27
2019-04-06T09:37:22.729Z,21.73
2019-04-06T09:42:26.814Z,19.32
2019-04-06T09:47:32.407Z,20.70
2019-04-06T09:52:38.280Z,19.25
2019-04-06T09:57:52.931Z,19.75
2019-04-06T10:03:13.773Z,18.35
2019-04-06T10:08:28.151Z,18.57
2019-04-06T10:13:46.610Z,18.95
2019-04-06T10:18:54.849Z,18.30
2019-04-06T10:24:13.121Z,19.00
2019-04-06T10:29:24.819Z,17.55
2019-04-06T10:34:36.323Z,18.42
2019-04-06T10:39:51.291Z,19.50
2019-04-06T10:44:59.656Z,18.82
2019-04-06T10:50:08.031Z,17.95
2019-04-06T10:55:16.483Z,18.02
2019-04-06T11:00:22.083Z,17.23
2019-04-06T11:05:45.801Z,17.77
2019-04-06T11:11:07.789Z,18.90
2019-04-06T11:16:13.554Z,17.40
2019-04-06T11:21:35.535Z,17.82
2019-04-06T11:26:56.232Z,16.60
2019-04-06T11:32:07.706Z,19.27
2019-04-06T11:37:18.943Z,19.95
2019-04-06T11:42:30.297Z,16.75
2019-04-06T11:47:39.023Z,16.32
2019-04-06T11:52:44.767Z,17.10
2019-04-06T11:57:53.401Z,16.20
2019-04-06T12:03:17.187Z,15.98
2019-04-06T12:08:31.463Z,16.90
2019-04-06T12:13:48.694Z,16.70
2019-04-06T12:18:59.777Z,17.97
2019-04-06T12:24:07.993Z,16.32
2019-04-06T12:29:16.940Z,15.40
2019-04-06T12:34:39.331Z,15.43
2019-04-06T12:39:53.398Z,15.88
2019-04-06T12:44:54.466Z,17.20
2019-04-06T12:50:16.513Z,16.27
2019-04-06T12:55:40.508Z,15.15
2019-04-06T13:00:52.437Z,14.65
2019-04-06T13:05:54.514Z,14.18
2019-04-06T13:11:00.067Z,13.60
2019-04-06T13:16:21.919Z,14.13
2019-04-06T13:21:33.505Z,13.80
2019-04-06T13:26:45.127Z,12.82
2019-04-06T13:31:50.793Z,13.20
2019-04-06T13:37:02.287Z,14.25
2019-04-06T13:42:23.539Z,13.70
2019-04-06T13:47:29.608Z,13.70
2019-04-06T13:52:54.032Z,13.08
2019-04-06T13:58:20.899Z,12.28
2019-04-06T14:03:41.703Z,14.35
2019-04-06T14:08:52.996Z,13.45
2019-04-06T14:14:10.375Z,13.83
2019-04-06T14:19:33.033Z,21.20
2019-04-06T14:24:55.575Z,13.72
2019-04-06T14:30:09.584Z,21.48
2019-04-06T14:35:20.912Z,22.48
2019-04-06T14:40:32.090Z,14.38
2019-04-06T14:45:37.847Z,13.40
2019-04-06T14:50:43.461Z,13.80
2019-04-06T14:55:51.536Z,20.40
2019-04-06T15:00:56.997Z,15.37
2019-04-06T15:06:14.256Z,14.10
2019-04-06T15:11:22.716Z,15.28
2019-04-06T15:16:45.160Z,17.40
2019-04-06T15:21:54.915Z,19.77
2019-04-06T15:27:03.329Z,17.10
2019-04-06T15:32:08.882Z,14.33
2019-04-06T15:37:30.473Z,15.72
2019-04-06T15:42:42.101Z,19.17
2019-04-06T15:48:05.590Z,22.98
2019-04-06T15:53:11.057Z,22.27
2019-04-06T15:58:17.068Z,17.23
2019-04-06T16:03:39.439Z,18.25
2019-04-06T16:08:56.508Z,17.85
2019-04-06T16:14:17.787Z,18.90
2019-04-06T16:19:29.572Z,14.80
2019-04-06T16:24:37.796Z,15.15
2019-04-06T16:29:49.264Z,16.70
2019-04-06T16:35:13.294Z,14.63
2019-04-06T16:40:30.761Z,14.53
2019-04-06T16:45:42.768Z,15.70
2019-04-06T16:51:03.107Z,13.70
2019-04-06T16:56:25.409Z,15.23
2019-04-06T17:01:39.962Z,15.32
2019-04-06T17:07:03.693Z,22.02
2019-04-06T17:12:09.528Z,22.25
2019-04-06T17:17:17.836Z,21.35
2019-04-06T17:22:39.526Z,20.90
2019-04-06T17:27:45.297Z,25.27
2019-04-06T17:33:02.803Z,34.30
2019-04-06T17:38:11.064Z,31.07
2019-04-06T17:43:33.750Z,28.77
2019-04-06T17:48:55.809Z,33.10
2019-04-06T17:54:01.594Z,42.53
2019-04-06T17:59:23.352Z,44.05
2019-04-06T18:04:45.477Z,34.03
2019-04-06T18:09:56.683Z,26.68
2019-04-06T18:15:00.922Z,24.98
2019-04-06T18:20:07.439Z,27.67
2019-04-06T18:25:11.327Z,26.68
2019-04-06T18:30:15.674Z,22.22
2019-04-06T18:35:19.666Z,25.37
2019-04-06T18:40:25.019Z,31.25
2019-04-06T18:45:30.273Z,31.87
2019-04-06T18:50:37.691Z,35.20
2019-04-06T18:55:40.097Z,39.27
2019-04-06T19:00:44.522Z,59.58
2019-04-06T19:05:50.818Z,42.90
2019-04-06T19:10:56.050Z,33.83
2019-04-06T19:16:06.296Z,25.62
2019-04-06T19:21:23.055Z,20.05
2019-04-06T19:26:26.901Z,17.55
2019-04-06T19:31:30.765Z,17.48
2019-04-06T19:36:34.579Z,17.85
2019-04-06T19:41:38.453Z,19.65
2019-04-06T19:46:42.388Z,15.83
2019-04-06T19:51:46.573Z,18.35
2019-04-06T19:56:50.548Z,22.10
2019-04-06T20:01:54.778Z,17.87
2019-04-06T20:06:58.688Z,28.27
2019-04-06T20:12:05.675Z,29.98
2019-04-06T20:17:08.455Z,18.45
2019-04-06T20:22:12.696Z,25.35
2019-04-06T20:27:16.610Z,28.07
2019-04-06T20:32:20.495Z,42.33
2019-04-06T20:37:24.365Z,42.58
2019-04-06T20:42:28.281Z,18.57
2019-04-06T20:47:32.177Z,14.90
2019-04-06T20:52:36.117Z,13.10
2019-04-06T20:57:40.473Z,13.38
2019-04-06T21:02:45.159Z,15.63
2019-04-06T21:07:49.521Z,17.00
2019-04-06T21:12:53.972Z,16.60
2019-04-06T21:17:58.039Z,19.00
2019-04-06T21:23:05.084Z,24.75
2019-04-06T21:28:14.376Z,25.08
2019-04-06T21:33:18.604Z,24.32
2019-04-06T21:38:26.198Z,19.50
2019-04-06T21:43:31.086Z,17.80
2019-04-06T21:48:43.390Z,17.75
2019-04-06T21:53:47.950Z,19.70
2019-04-06T21:58:52.036Z,18.95
2019-04-06T22:03:55.940Z,20.60
2019-04-06T22:09:00.377Z,20.92
2019-04-06T22:14:04.572Z,20.70
2019-04-06T22:19:09.422Z,21.00
2019-04-06T22:24:14.991Z,19.20
2019-04-06T22:29:19.422Z,17.75
2019-04-06T22:34:34.753Z,17.25
2019-04-06T22:39:30.336Z,18.00
2019-04-06T22:44:34.758Z,18.50
2019-04-06T22:49:38.791Z,17.55
2019-04-06T22:54:42.700Z,17.60
2019-04-06T22:59:46.568Z,16.00
2019-04-06T23:04:54.931Z,17.07
2019-04-06T23:09:58.810Z,17.20
2019-04-06T23:15:02.694Z,19.10
2019-04-06T23:20:06.676Z,19.27
2019-04-06T23:25:10.943Z,18.67
2019-04-06T23:30:14.910Z,18.40
2019-04-06T23:35:18.775Z,18.57
2019-04-06T23:40:22.675Z,18.42
2019-04-06T23:45:26.528Z,17.98
2019-04-06T23:50:30.330Z,17.57
2019-04-06T23:55:34.193Z,18.82
